KTUP/TUP METAR and TAF weather

Enter ICAO airport designator
Station Type Date Time Source
KTUP METAR 2019/08/25 17:53 UTC NOAA

KTUP 251753Z 19004KT 9SM -RA FEW017 BKN070 BKN085 28/23 A2997 RMK AO2 RAB42 SLP144 P0000 60001 T02780228 10283 20239 58006 $


Station Type Date Time Source
KTUP Decoded METAR 2019/08/25 17:53 UTC NOAA

Station name not available
Aug 25, 2019 - 01:53 PM EDT / 2019.08.25 1753 UTC
Wind: from the S (190 degrees) at 5 MPH (4 KT):0
Visibility: 9 mile(s):0
Sky conditions: mostly cloudy
Weather: light rain
Precipitation last hour: A trace
Temperature: 82.0 F (27.8 C)
Dew Point: 73.0 F (22.8 C)
Relative Humidity: 74%
Pressure (altimeter): 29.97 in. Hg (1014 hPa)
Pressure tendency: 0.02 inches (0.6 hPa) lower than three hours ago
ob: KTUP 251753Z 19004KT 9SM -RA FEW017 BKN070 BKN085 28/23 A2997 RMK AO2 RAB42 SLP144 P0000 60001 T02780228 10283 20239 58006
cycle: 18

Station Type Date Time Source
KTUP TAF 2019/08/25 18:39 UTC NOAA

TAF KTUP 251737Z 2518/2618 12005KT P6SM VCSH FEW010 SCT025
FM251900 13007KT P6SM VCTS SCT035CB BKN040
TEMPO 2520/2524 VRB10KT 4SM TSRA SCT010 BKN035CB
FM260100 15004KT P6SM VCSH FEW009 BKN020
FM260400 16008KT 6SM -SHRA SCT007 BKN015
FM261100 18008KT 5SM -SHRA VCTS BKN008 OVC020CB

Example: see airport list